sensor_id;sensor_type;location;lat;lon;timestamp;P1;durP1;ratioP1;P2;durP2;ratioP2
73487;SDS011;61721;42.206;25.320;2022-08-07T00:02:07;8.70;;;5.03;;
73487;SDS011;61721;42.206;25.320;2022-08-07T00:04:34;8.52;;;4.93;;
73487;SDS011;61721;42.206;25.320;2022-08-07T00:07:01;7.68;;;4.90;;
73487;SDS011;61721;42.206;25.320;2022-08-07T00:09:28;7.35;;;5.32;;
73487;SDS011;61721;42.206;25.320;2022-08-07T00:11:55;7.95;;;5.18;;
73487;SDS011;61721;42.206;25.320;2022-08-07T00:14:23;8.18;;;5.22;;
73487;SDS011;61721;42.206;25.320;2022-08-07T00:16:51;8.55;;;5.20;;
73487;SDS011;61721;42.206;25.320;2022-08-07T00:19:19;7.32;;;4.80;;
73487;SDS011;61721;42.206;25.320;2022-08-07T00:21:46;9.60;;;5.18;;
73487;SDS011;61721;42.206;25.320;2022-08-07T00:24:13;8.13;;;5.47;;
73487;SDS011;61721;42.206;25.320;2022-08-07T00:26:40;8.02;;;5.00;;
73487;SDS011;61721;42.206;25.320;2022-08-07T00:29:07;8.77;;;5.75;;
73487;SDS011;61721;42.206;25.320;2022-08-07T00:31:35;8.32;;;5.43;;
73487;SDS011;61721;42.206;25.320;2022-08-07T00:34:02;8.90;;;5.35;;
73487;SDS011;61721;42.206;25.320;2022-08-07T00:36:30;7.03;;;4.78;;
73487;SDS011;61721;42.206;25.320;2022-08-07T00:38:58;7.45;;;5.38;;
73487;SDS011;61721;42.206;25.320;2022-08-07T00:41:25;8.27;;;5.20;;
73487;SDS011;61721;42.206;25.320;2022-08-07T00:43:53;9.30;;;4.88;;
73487;SDS011;61721;42.206;25.320;2022-08-07T00:46:20;9.30;;;5.35;;
73487;SDS011;61721;42.206;25.320;2022-08-07T00:48:47;7.45;;;5.05;;
73487;SDS011;61721;42.206;25.320;2022-08-07T00:51:14;8.38;;;4.70;;
73487;SDS011;61721;42.206;25.320;2022-08-07T00:53:42;7.20;;;4.93;;
73487;SDS011;61721;42.206;25.320;2022-08-07T00:56:10;7.68;;;4.80;;
73487;SDS011;61721;42.206;25.320;2022-08-07T00:58:40;7.82;;;5.40;;
73487;SDS011;61721;42.206;25.320;2022-08-07T01:01:08;7.43;;;5.30;;
73487;SDS011;61721;42.206;25.320;2022-08-07T01:03:35;7.30;;;4.93;;
73487;SDS011;61721;42.206;25.320;2022-08-07T01:06:03;8.73;;;5.38;;
73487;SDS011;61721;42.206;25.320;2022-08-07T01:08:31;8.57;;;5.88;;
73487;SDS011;61721;42.206;25.320;2022-08-07T01:11:00;10.10;;;6.47;;
73487;SDS011;61721;42.206;25.320;2022-08-07T01:13:27;9.98;;;6.60;;
73487;SDS011;61721;42.206;25.320;2022-08-07T01:15:54;9.98;;;6.68;;
73487;SDS011;61721;42.206;25.320;2022-08-07T01:18:24;11.25;;;8.02;;
73487;SDS011;61721;42.206;25.320;2022-08-07T01:23:28;11.85;;;8.15;;
73487;SDS011;61721;42.206;25.320;2022-08-07T01:25:55;12.23;;;7.80;;
73487;SDS011;61721;42.206;25.320;2022-08-07T01:28:23;11.93;;;8.05;;
73487;SDS011;61721;42.206;25.320;2022-08-07T01:30:50;12.23;;;9.13;;
73487;SDS011;61721;42.206;25.320;2022-08-07T01:33:18;12.73;;;9.32;;
73487;SDS011;61721;42.206;25.320;2022-08-07T01:35:45;12.32;;;8.73;;
73487;SDS011;61721;42.206;25.320;2022-08-07T01:38:14;11.60;;;8.90;;
73487;SDS011;61721;42.206;25.320;2022-08-07T01:40:42;12.70;;;8.70;;
73487;SDS011;61721;42.206;25.320;2022-08-07T01:43:13;11.90;;;8.20;;
73487;SDS011;61721;42.206;25.320;2022-08-07T01:45:40;11.65;;;7.45;;
73487;SDS011;61721;42.206;25.320;2022-08-07T01:48:08;14.55;;;7.32;;
73487;SDS011;61721;42.206;25.320;2022-08-07T01:50:36;9.52;;;6.93;;
73487;SDS011;61721;42.206;25.320;2022-08-07T01:53:04;11.23;;;7.10;;
73487;SDS011;61721;42.206;25.320;2022-08-07T01:55:35;14.05;;;8.13;;
73487;SDS011;61721;42.206;25.320;2022-08-07T01:58:09;14.10;;;9.82;;
73487;SDS011;61721;42.206;25.320;2022-08-07T02:00:38;16.13;;;10.77;;
73487;SDS011;61721;42.206;25.320;2022-08-07T02:05:38;15.48;;;11.07;;
73487;SDS011;61721;42.206;25.320;2022-08-07T02:08:10;15.65;;;11.90;;
73487;SDS011;61721;42.206;25.320;2022-08-07T02:10:41;11.10;;;8.57;;
73487;SDS011;61721;42.206;25.320;2022-08-07T02:13:12;10.90;;;7.38;;
73487;SDS011;61721;42.206;25.320;2022-08-07T02:15:41;13.30;;;9.05;;
73487;SDS011;61721;42.206;25.320;2022-08-07T02:18:09;14.68;;;10.02;;
73487;SDS011;61721;42.206;25.320;2022-08-07T02:20:39;13.70;;;8.07;;
73487;SDS011;61721;42.206;25.320;2022-08-07T02:23:09;13.23;;;7.45;;
73487;SDS011;61721;42.206;25.320;2022-08-07T02:25:37;11.10;;;6.93;;
73487;SDS011;61721;42.206;25.320;2022-08-07T02:28:07;9.15;;;6.28;;
73487;SDS011;61721;42.206;25.320;2022-08-07T02:30:36;9.55;;;6.07;;
73487;SDS011;61721;42.206;25.320;2022-08-07T02:33:04;9.27;;;5.78;;
73487;SDS011;61721;42.206;25.320;2022-08-07T02:35:33;11.32;;;7.18;;
73487;SDS011;61721;42.206;25.320;2022-08-07T02:38:03;11.25;;;7.43;;
73487;SDS011;61721;42.206;25.320;2022-08-07T02:40:31;10.77;;;7.00;;
73487;SDS011;61721;42.206;25.320;2022-08-07T02:42:59;8.75;;;5.85;;
73487;SDS011;61721;42.206;25.320;2022-08-07T02:45:29;8.05;;;6.00;;
73487;SDS011;61721;42.206;25.320;2022-08-07T02:47:58;9.02;;;6.57;;
73487;SDS011;61721;42.206;25.320;2022-08-07T02:50:26;8.82;;;6.15;;
73487;SDS011;61721;42.206;25.320;2022-08-07T02:52:56;9.82;;;5.70;;
73487;SDS011;61721;42.206;25.320;2022-08-07T02:55:28;8.73;;;6.10;;
73487;SDS011;61721;42.206;25.320;2022-08-07T03:00:49;8.82;;;5.50;;
73487;SDS011;61721;42.206;25.320;2022-08-07T03:03:18;11.57;;;5.55;;
73487;SDS011;61721;42.206;25.320;2022-08-07T03:05:47;11.27;;;5.50;;
73487;SDS011;61721;42.206;25.320;2022-08-07T03:08:16;9.05;;;5.82;;
73487;SDS011;61721;42.206;25.320;2022-08-07T03:10:44;9.45;;;5.85;;
73487;SDS011;61721;42.206;25.320;2022-08-07T03:13:12;8.93;;;5.82;;
73487;SDS011;61721;42.206;25.320;2022-08-07T03:15:40;11.15;;;6.13;;
73487;SDS011;61721;42.206;25.320;2022-08-07T03:18:09;8.35;;;5.60;;
73487;SDS011;61721;42.206;25.320;2022-08-07T03:23:05;10.85;;;5.95;;
73487;SDS011;61721;42.206;25.320;2022-08-07T03:25:35;8.40;;;5.40;;
73487;SDS011;61721;42.206;25.320;2022-08-07T03:28:05;9.82;;;5.75;;
73487;SDS011;61721;42.206;25.320;2022-08-07T03:30:35;7.97;;;5.20;;
73487;SDS011;61721;42.206;25.320;2022-08-07T03:33:03;12.30;;;5.60;;
73487;SDS011;61721;42.206;25.320;2022-08-07T03:35:34;8.10;;;5.63;;
73487;SDS011;61721;42.206;25.320;2022-08-07T03:38:02;9.55;;;5.20;;
73487;SDS011;61721;42.206;25.320;2022-08-07T03:40:32;10.52;;;5.70;;
73487;SDS011;61721;42.206;25.320;2022-08-07T03:43:00;8.82;;;5.90;;
73487;SDS011;61721;42.206;25.320;2022-08-07T03:45:28;7.88;;;5.32;;
73487;SDS011;61721;42.206;25.320;2022-08-07T03:47:55;10.88;;;5.85;;
73487;SDS011;61721;42.206;25.320;2022-08-07T03:50:23;11.68;;;5.93;;
73487;SDS011;61721;42.206;25.320;2022-08-07T03:52:52;9.48;;;6.20;;
73487;SDS011;61721;42.206;25.320;2022-08-07T03:55:21;10.40;;;6.35;;
73487;SDS011;61721;42.206;25.320;2022-08-07T03:57:48;9.20;;;6.13;;
73487;SDS011;61721;42.206;25.320;2022-08-07T04:00:17;11.15;;;5.97;;
73487;SDS011;61721;42.206;25.320;2022-08-07T04:02:45;12.38;;;6.15;;
73487;SDS011;61721;42.206;25.320;2022-08-07T04:05:12;11.98;;;6.32;;
73487;SDS011;61721;42.206;25.320;2022-08-07T04:07:42;11.98;;;6.55;;
73487;SDS011;61721;42.206;25.320;2022-08-07T04:10:12;8.50;;;6.45;;
73487;SDS011;61721;42.206;25.320;2022-08-07T04:12:40;12.45;;;6.32;;
73487;SDS011;61721;42.206;25.320;2022-08-07T04:15:08;10.82;;;6.68;;
73487;SDS011;61721;42.206;25.320;2022-08-07T04:17:36;11.25;;;6.97;;
73487;SDS011;61721;42.206;25.320;2022-08-07T04:20:05;9.68;;;6.65;;
73487;SDS011;61721;42.206;25.320;2022-08-07T04:22:35;13.23;;;6.60;;
73487;SDS011;61721;42.206;25.320;2022-08-07T04:25:03;10.65;;;6.30;;
73487;SDS011;61721;42.206;25.320;2022-08-07T04:27:33;10.57;;;6.07;;
73487;SDS011;61721;42.206;25.320;2022-08-07T04:30:01;10.15;;;6.10;;
73487;SDS011;61721;42.206;25.320;2022-08-07T04:32:29;9.85;;;6.20;;
73487;SDS011;61721;42.206;25.320;2022-08-07T04:34:56;10.57;;;6.40;;
73487;SDS011;61721;42.206;25.320;2022-08-07T04:37:24;10.38;;;6.30;;
73487;SDS011;61721;42.206;25.320;2022-08-07T04:39:51;13.77;;;7.22;;
73487;SDS011;61721;42.206;25.320;2022-08-07T04:42:18;9.77;;;6.32;;
73487;SDS011;61721;42.206;25.320;2022-08-07T04:44:47;10.32;;;6.43;;
73487;SDS011;61721;42.206;25.320;2022-08-07T04:47:15;11.38;;;7.22;;
73487;SDS011;61721;42.206;25.320;2022-08-07T04:49:51;11.13;;;7.00;;
73487;SDS011;61721;42.206;25.320;2022-08-07T04:52:27;15.55;;;6.97;;
73487;SDS011;61721;42.206;25.320;2022-08-07T04:55:00;9.32;;;7.07;;
73487;SDS011;61721;42.206;25.320;2022-08-07T04:57:34;11.85;;;6.85;;
73487;SDS011;61721;42.206;25.320;2022-08-07T05:00:10;10.45;;;6.45;;
73487;SDS011;61721;42.206;25.320;2022-08-07T05:02:42;11.90;;;7.47;;
73487;SDS011;61721;42.206;25.320;2022-08-07T05:05:19;17.48;;;11.23;;
73487;SDS011;61721;42.206;25.320;2022-08-07T05:07:52;17.48;;;12.50;;
73487;SDS011;61721;42.206;25.320;2022-08-07T05:10:23;15.68;;;10.65;;
73487;SDS011;61721;42.206;25.320;2022-08-07T05:12:57;12.32;;;8.45;;
73487;SDS011;61721;42.206;25.320;2022-08-07T05:15:33;10.98;;;7.35;;
73487;SDS011;61721;42.206;25.320;2022-08-07T05:18:04;12.23;;;7.82;;
73487;SDS011;61721;42.206;25.320;2022-08-07T05:23:04;9.55;;;6.55;;
73487;SDS011;61721;42.206;25.320;2022-08-07T05:25:35;9.20;;;6.38;;
73487;SDS011;61721;42.206;25.320;2022-08-07T05:28:06;12.63;;;7.30;;
73487;SDS011;61721;42.206;25.320;2022-08-07T05:30:37;9.73;;;6.97;;
73487;SDS011;61721;42.206;25.320;2022-08-07T05:33:08;11.65;;;7.00;;
73487;SDS011;61721;42.206;25.320;2022-08-07T05:35:38;9.68;;;7.13;;
73487;SDS011;61721;42.206;25.320;2022-08-07T05:38:09;12.70;;;7.97;;
73487;SDS011;61721;42.206;25.320;2022-08-07T05:40:38;10.40;;;7.35;;
73487;SDS011;61721;42.206;25.320;2022-08-07T05:43:06;10.73;;;7.80;;
73487;SDS011;61721;42.206;25.320;2022-08-07T05:45:34;10.73;;;7.22;;
73487;SDS011;61721;42.206;25.320;2022-08-07T05:48:04;10.68;;;7.75;;
73487;SDS011;61721;42.206;25.320;2022-08-07T05:50:32;17.20;;;7.63;;
73487;SDS011;61721;42.206;25.320;2022-08-07T05:52:59;9.60;;;7.20;;
73487;SDS011;61721;42.206;25.320;2022-08-07T05:55:26;13.02;;;7.35;;
73487;SDS011;61721;42.206;25.320;2022-08-07T05:57:55;10.93;;;6.75;;
73487;SDS011;61721;42.206;25.320;2022-08-07T06:00:22;12.30;;;6.85;;
73487;SDS011;61721;42.206;25.320;2022-08-07T06:02:50;11.18;;;7.80;;
73487;SDS011;61721;42.206;25.320;2022-08-07T06:05:22;11.15;;;7.43;;
73487;SDS011;61721;42.206;25.320;2022-08-07T06:07:58;10.82;;;6.82;;
73487;SDS011;61721;42.206;25.320;2022-08-07T06:10:35;11.80;;;7.63;;
73487;SDS011;61721;42.206;25.320;2022-08-07T06:13:10;11.77;;;7.15;;
73487;SDS011;61721;42.206;25.320;2022-08-07T06:15:38;10.18;;;7.10;;
73487;SDS011;61721;42.206;25.320;2022-08-07T06:18:10;11.10;;;7.15;;
73487;SDS011;61721;42.206;25.320;2022-08-07T06:20:39;11.18;;;6.90;;
73487;SDS011;61721;42.206;25.320;2022-08-07T06:23:14;10.35;;;6.68;;
73487;SDS011;61721;42.206;25.320;2022-08-07T06:25:44;9.57;;;6.40;;
73487;SDS011;61721;42.206;25.320;2022-08-07T06:28:12;9.77;;;6.55;;
73487;SDS011;61721;42.206;25.320;2022-08-07T06:30:44;8.85;;;6.32;;
73487;SDS011;61721;42.206;25.320;2022-08-07T06:33:18;9.32;;;5.88;;
73487;SDS011;61721;42.206;25.320;2022-08-07T06:35:53;11.98;;;6.35;;
73487;SDS011;61721;42.206;25.320;2022-08-07T06:38:23;10.18;;;5.95;;
73487;SDS011;61721;42.206;25.320;2022-08-07T06:40:58;10.05;;;6.45;;
73487;SDS011;61721;42.206;25.320;2022-08-07T06:43:28;7.63;;;6.03;;
73487;SDS011;61721;42.206;25.320;2022-08-07T06:46:06;12.55;;;6.22;;
73487;SDS011;61721;42.206;25.320;2022-08-07T06:48:34;9.82;;;6.28;;
73487;SDS011;61721;42.206;25.320;2022-08-07T06:51:05;8.30;;;6.13;;
73487;SDS011;61721;42.206;25.320;2022-08-07T06:53:35;10.20;;;6.18;;
73487;SDS011;61721;42.206;25.320;2022-08-07T06:56:05;9.40;;;5.78;;
73487;SDS011;61721;42.206;25.320;2022-08-07T06:58:34;8.13;;;5.68;;
73487;SDS011;61721;42.206;25.320;2022-08-07T07:01:04;7.90;;;6.00;;
73487;SDS011;61721;42.206;25.320;2022-08-07T07:03:36;8.60;;;6.03;;
73487;SDS011;61721;42.206;25.320;2022-08-07T07:06:06;8.88;;;5.95;;
73487;SDS011;61721;42.206;25.320;2022-08-07T07:08:34;9.20;;;6.07;;
73487;SDS011;61721;42.206;25.320;2022-08-07T07:11:02;8.82;;;5.80;;
73487;SDS011;61721;42.206;25.320;2022-08-07T07:13:34;7.90;;;5.35;;
73487;SDS011;61721;42.206;25.320;2022-08-07T07:16:13;7.85;;;4.20;;
73487;SDS011;61721;42.206;25.320;2022-08-07T07:18:47;6.63;;;3.95;;
73487;SDS011;61721;42.206;25.320;2022-08-07T07:21:21;6.18;;;4.10;;
73487;SDS011;61721;42.206;25.320;2022-08-07T07:23:51;6.78;;;3.92;;
73487;SDS011;61721;42.206;25.320;2022-08-07T07:26:20;7.07;;;3.83;;
73487;SDS011;61721;42.206;25.320;2022-08-07T07:28:51;5.70;;;3.17;;
73487;SDS011;61721;42.206;25.320;2022-08-07T07:31:24;4.95;;;3.10;;
73487;SDS011;61721;42.206;25.320;2022-08-07T07:34:00;4.63;;;2.90;;
73487;SDS011;61721;42.206;25.320;2022-08-07T07:36:37;5.63;;;3.28;;
73487;SDS011;61721;42.206;25.320;2022-08-07T07:39:05;5.28;;;3.22;;
73487;SDS011;61721;42.206;25.320;2022-08-07T07:41:34;8.00;;;3.75;;
73487;SDS011;61721;42.206;25.320;2022-08-07T07:44:04;7.13;;;3.50;;
73487;SDS011;61721;42.206;25.320;2022-08-07T07:46:34;5.68;;;3.40;;
73487;SDS011;61721;42.206;25.320;2022-08-07T07:49:03;6.65;;;3.22;;
73487;SDS011;61721;42.206;25.320;2022-08-07T07:51:31;6.05;;;3.33;;
73487;SDS011;61721;42.206;25.320;2022-08-07T07:54:02;5.22;;;3.25;;
73487;SDS011;61721;42.206;25.320;2022-08-07T07:56:31;5.75;;;3.55;;
73487;SDS011;61721;42.206;25.320;2022-08-07T07:59:00;6.70;;;3.30;;
73487;SDS011;61721;42.206;25.320;2022-08-07T08:01:30;6.35;;;3.30;;
73487;SDS011;61721;42.206;25.320;2022-08-07T08:03:59;7.25;;;3.40;;
73487;SDS011;61721;42.206;25.320;2022-08-07T08:06:30;7.00;;;3.38;;
73487;SDS011;61721;42.206;25.320;2022-08-07T08:09:01;5.80;;;3.72;;
73487;SDS011;61721;42.206;25.320;2022-08-07T08:11:32;6.65;;;3.50;;
73487;SDS011;61721;42.206;25.320;2022-08-07T08:14:01;4.28;;;3.13;;
73487;SDS011;61721;42.206;25.320;2022-08-07T08:16:30;8.20;;;3.78;;
73487;SDS011;61721;42.206;25.320;2022-08-07T08:19:01;8.05;;;3.67;;
73487;SDS011;61721;42.206;25.320;2022-08-07T08:21:31;6.65;;;3.55;;
73487;SDS011;61721;42.206;25.320;2022-08-07T08:24:17;5.93;;;3.42;;
73487;SDS011;61721;42.206;25.320;2022-08-07T08:27:04;4.90;;;3.35;;
73487;SDS011;61721;42.206;25.320;2022-08-07T08:29:35;5.50;;;3.38;;
73487;SDS011;61721;42.206;25.320;2022-08-07T08:32:08;6.82;;;3.38;;
73487;SDS011;61721;42.206;25.320;2022-08-07T08:34:37;5.78;;;3.20;;
73487;SDS011;61721;42.206;25.320;2022-08-07T08:37:06;5.20;;;3.30;;
73487;SDS011;61721;42.206;25.320;2022-08-07T08:39:38;5.78;;;3.63;;
73487;SDS011;61721;42.206;25.320;2022-08-07T08:42:10;6.07;;;3.20;;
73487;SDS011;61721;42.206;25.320;2022-08-07T08:44:45;5.63;;;3.65;;
73487;SDS011;61721;42.206;25.320;2022-08-07T08:47:20;5.72;;;3.33;;
73487;SDS011;61721;42.206;25.320;2022-08-07T08:49:54;5.72;;;3.55;;
73487;SDS011;61721;42.206;25.320;2022-08-07T08:52:37;8.77;;;3.78;;
73487;SDS011;61721;42.206;25.320;2022-08-07T08:55:18;8.38;;;3.25;;
73487;SDS011;61721;42.206;25.320;2022-08-07T08:57:51;12.65;;;3.90;;
73487;SDS011;61721;42.206;25.320;2022-08-07T09:00:27;5.95;;;3.40;;
73487;SDS011;61721;42.206;25.320;2022-08-07T09:02:58;4.43;;;3.08;;
73487;SDS011;61721;42.206;25.320;2022-08-07T09:05:32;5.40;;;3.38;;
73487;SDS011;61721;42.206;25.320;2022-08-07T09:08:22;5.10;;;3.20;;
73487;SDS011;61721;42.206;25.320;2022-08-07T09:11:01;4.40;;;2.88;;
73487;SDS011;61721;42.206;25.320;2022-08-07T09:13:39;4.78;;;3.30;;
73487;SDS011;61721;42.206;25.320;2022-08-07T09:16:14;6.57;;;3.55;;
73487;SDS011;61721;42.206;25.320;2022-08-07T09:19:01;5.97;;;2.97;;
73487;SDS011;61721;42.206;25.320;2022-08-07T09:21:38;5.22;;;3.00;;
73487;SDS011;61721;42.206;25.320;2022-08-07T09:24:16;5.53;;;2.90;;
73487;SDS011;61721;42.206;25.320;2022-08-07T09:29:32;5.65;;;3.25;;
73487;SDS011;61721;42.206;25.320;2022-08-07T09:32:08;4.78;;;3.10;;
73487;SDS011;61721;42.206;25.320;2022-08-07T09:34:47;8.63;;;3.00;;
73487;SDS011;61721;42.206;25.320;2022-08-07T09:37:24;4.40;;;2.97;;
73487;SDS011;61721;42.206;25.320;2022-08-07T09:40:02;6.75;;;3.28;;
73487;SDS011;61721;42.206;25.320;2022-08-07T09:42:42;5.05;;;3.03;;
73487;SDS011;61721;42.206;25.320;2022-08-07T09:45:17;5.70;;;3.40;;
73487;SDS011;61721;42.206;25.320;2022-08-07T09:47:56;5.47;;;3.00;;
73487;SDS011;61721;42.206;25.320;2022-08-07T09:50:38;5.10;;;2.90;;
73487;SDS011;61721;42.206;25.320;2022-08-07T09:53:21;5.28;;;3.25;;
73487;SDS011;61721;42.206;25.320;2022-08-07T09:58:59;6.68;;;2.88;;
73487;SDS011;61721;42.206;25.320;2022-08-07T10:01:38;6.35;;;3.15;;
73487;SDS011;61721;42.206;25.320;2022-08-07T10:04:22;6.07;;;3.00;;
73487;SDS011;61721;42.206;25.320;2022-08-07T10:10:06;7.05;;;2.88;;
73487;SDS011;61721;42.206;25.320;2022-08-07T10:15:37;4.82;;;2.63;;
73487;SDS011;61721;42.206;25.320;2022-08-07T10:18:23;5.50;;;3.38;;
73487;SDS011;61721;42.206;25.320;2022-08-07T10:21:20;5.90;;;3.10;;
73487;SDS011;61721;42.206;25.320;2022-08-07T10:24:03;5.03;;;2.65;;
73487;SDS011;61721;42.206;25.320;2022-08-07T10:26:51;6.15;;;2.78;;
73487;SDS011;61721;42.206;25.320;2022-08-07T10:29:36;4.68;;;2.60;;
73487;SDS011;61721;42.206;25.320;2022-08-07T10:32:17;4.15;;;2.60;;
73487;SDS011;61721;42.206;25.320;2022-08-07T10:34:57;6.15;;;2.95;;
73487;SDS011;61721;42.206;25.320;2022-08-07T10:37:38;4.38;;;2.88;;
73487;SDS011;61721;42.206;25.320;2022-08-07T10:40:16;5.03;;;2.72;;
73487;SDS011;61721;42.206;25.320;2022-08-07T10:42:54;4.38;;;2.47;;
73487;SDS011;61721;42.206;25.320;2022-08-07T10:45:41;4.20;;;2.42;;
73487;SDS011;61721;42.206;25.320;2022-08-07T10:48:15;4.22;;;2.53;;
73487;SDS011;61721;42.206;25.320;2022-08-07T10:50:57;4.30;;;2.55;;
73487;SDS011;61721;42.206;25.320;2022-08-07T10:53:30;4.80;;;2.60;;
73487;SDS011;61721;42.206;25.320;2022-08-07T10:56:08;6.82;;;2.80;;
73487;SDS011;61721;42.206;25.320;2022-08-07T10:58:50;7.18;;;2.85;;
73487;SDS011;61721;42.206;25.320;2022-08-07T11:01:34;4.80;;;2.88;;
73487;SDS011;61721;42.206;25.320;2022-08-07T11:04:10;6.88;;;3.10;;
73487;SDS011;61721;42.206;25.320;2022-08-07T11:06:52;6.20;;;2.97;;
73487;SDS011;61721;42.206;25.320;2022-08-07T11:09:27;5.05;;;2.90;;
73487;SDS011;61721;42.206;25.320;2022-08-07T11:12:09;8.75;;;3.70;;
73487;SDS011;61721;42.206;25.320;2022-08-07T11:14:48;4.97;;;3.15;;
73487;SDS011;61721;42.206;25.320;2022-08-07T11:17:33;5.82;;;3.45;;
73487;SDS011;61721;42.206;25.320;2022-08-07T11:20:13;7.18;;;3.30;;
73487;SDS011;61721;42.206;25.320;2022-08-07T11:22:48;6.22;;;3.40;;
73487;SDS011;61721;42.206;25.320;2022-08-07T11:25:22;4.72;;;3.03;;
73487;SDS011;61721;42.206;25.320;2022-08-07T11:27:53;5.80;;;3.40;;
73487;SDS011;61721;42.206;25.320;2022-08-07T11:30:27;5.90;;;2.97;;
73487;SDS011;61721;42.206;25.320;2022-08-07T11:33:01;5.35;;;3.58;;
73487;SDS011;61721;42.206;25.320;2022-08-07T11:35:45;5.43;;;3.70;;
73487;SDS011;61721;42.206;25.320;2022-08-07T11:38:26;5.40;;;3.55;;
73487;SDS011;61721;42.206;25.320;2022-08-07T11:41:00;5.30;;;3.30;;
73487;SDS011;61721;42.206;25.320;2022-08-07T11:43:32;5.90;;;3.53;;
73487;SDS011;61721;42.206;25.320;2022-08-07T11:46:20;5.90;;;3.45;;
73487;SDS011;61721;42.206;25.320;2022-08-07T11:49:16;6.07;;;3.58;;
73487;SDS011;61721;42.206;25.320;2022-08-07T11:51:58;6.80;;;3.33;;
73487;SDS011;61721;42.206;25.320;2022-08-07T11:54:45;6.70;;;4.13;;
73487;SDS011;61721;42.206;25.320;2022-08-07T11:57:28;5.65;;;3.28;;
73487;SDS011;61721;42.206;25.320;2022-08-07T12:00:06;10.07;;;3.65;;
73487;SDS011;61721;42.206;25.320;2022-08-07T12:02:54;8.38;;;4.05;;
73487;SDS011;61721;42.206;25.320;2022-08-07T12:05:42;5.15;;;3.50;;
73487;SDS011;61721;42.206;25.320;2022-08-07T12:08:24;6.18;;;3.60;;
73487;SDS011;61721;42.206;25.320;2022-08-07T12:10:58;5.95;;;3.72;;
73487;SDS011;61721;42.206;25.320;2022-08-07T12:13:35;4.93;;;3.47;;
73487;SDS011;61721;42.206;25.320;2022-08-07T12:16:09;7.97;;;4.07;;
73487;SDS011;61721;42.206;25.320;2022-08-07T12:18:43;6.05;;;3.70;;
73487;SDS011;61721;42.206;25.320;2022-08-07T12:21:19;7.25;;;3.70;;
73487;SDS011;61721;42.206;25.320;2022-08-07T12:23:58;7.95;;;4.00;;
73487;SDS011;61721;42.206;25.320;2022-08-07T12:26:32;10.48;;;4.22;;
73487;SDS011;61721;42.206;25.320;2022-08-07T12:29:06;10.90;;;4.68;;
73487;SDS011;61721;42.206;25.320;2022-08-07T12:31:38;11.57;;;4.75;;
73487;SDS011;61721;42.206;25.320;2022-08-07T12:34:13;10.73;;;4.43;;
73487;SDS011;61721;42.206;25.320;2022-08-07T12:36:41;6.20;;;3.97;;
73487;SDS011;61721;42.206;25.320;2022-08-07T12:39:13;7.97;;;4.28;;
73487;SDS011;61721;42.206;25.320;2022-08-07T12:41:42;9.10;;;4.43;;
73487;SDS011;61721;42.206;25.320;2022-08-07T12:44:10;7.40;;;4.93;;
73487;SDS011;61721;42.206;25.320;2022-08-07T12:46:45;8.63;;;4.57;;
73487;SDS011;61721;42.206;25.320;2022-08-07T12:49:23;10.35;;;4.32;;
73487;SDS011;61721;42.206;25.320;2022-08-07T12:52:03;7.68;;;4.18;;
73487;SDS011;61721;42.206;25.320;2022-08-07T12:54:38;6.68;;;3.88;;
73487;SDS011;61721;42.206;25.320;2022-08-07T12:57:09;6.57;;;3.85;;
73487;SDS011;61721;42.206;25.320;2022-08-07T12:59:37;6.22;;;3.67;;
73487;SDS011;61721;42.206;25.320;2022-08-07T13:02:15;8.60;;;3.97;;
73487;SDS011;61721;42.206;25.320;2022-08-07T13:05:05;7.57;;;3.95;;
73487;SDS011;61721;42.206;25.320;2022-08-07T13:10:48;16.67;;;4.63;;
73487;SDS011;61721;42.206;25.320;2022-08-07T13:13:33;6.22;;;3.90;;
73487;SDS011;61721;42.206;25.320;2022-08-07T13:16:10;9.00;;;4.00;;
73487;SDS011;61721;42.206;25.320;2022-08-07T13:21:35;8.52;;;3.67;;
73487;SDS011;61721;42.206;25.320;2022-08-07T13:24:14;7.15;;;3.92;;
73487;SDS011;61721;42.206;25.320;2022-08-07T13:26:50;6.55;;;3.75;;
73487;SDS011;61721;42.206;25.320;2022-08-07T13:29:28;5.53;;;3.97;;
73487;SDS011;61721;42.206;25.320;2022-08-07T13:32:03;6.97;;;4.10;;
73487;SDS011;61721;42.206;25.320;2022-08-07T13:34:42;8.23;;;4.07;;
73487;SDS011;61721;42.206;25.320;2022-08-07T13:37:16;5.32;;;3.65;;
73487;SDS011;61721;42.206;25.320;2022-08-07T13:39:55;6.07;;;3.83;;
73487;SDS011;61721;42.206;25.320;2022-08-07T13:42:32;6.63;;;3.90;;
73487;SDS011;61721;42.206;25.320;2022-08-07T13:45:01;6.55;;;3.65;;
73487;SDS011;61721;42.206;25.320;2022-08-07T13:47:33;6.82;;;3.92;;
73487;SDS011;61721;42.206;25.320;2022-08-07T13:50:03;7.32;;;3.72;;
73487;SDS011;61721;42.206;25.320;2022-08-07T13:52:35;6.80;;;3.72;;
73487;SDS011;61721;42.206;25.320;2022-08-07T13:55:06;9.05;;;3.70;;
73487;SDS011;61721;42.206;25.320;2022-08-07T13:57:39;26.15;;;4.93;;
73487;SDS011;61721;42.206;25.320;2022-08-07T14:00:10;20.10;;;3.00;;
73487;SDS011;61721;42.206;25.320;2022-08-07T14:02:38;10.98;;;2.63;;
73487;SDS011;61721;42.206;25.320;2022-08-07T14:05:08;10.15;;;2.30;;
73487;SDS011;61721;42.206;25.320;2022-08-07T14:07:39;7.75;;;2.50;;
73487;SDS011;61721;42.206;25.320;2022-08-07T14:10:09;6.55;;;2.53;;
73487;SDS011;61721;42.206;25.320;2022-08-07T14:12:42;6.03;;;2.88;;
73487;SDS011;61721;42.206;25.320;2022-08-07T14:15:17;8.43;;;3.13;;
73487;SDS011;61721;42.206;25.320;2022-08-07T14:17:52;7.80;;;3.40;;
73487;SDS011;61721;42.206;25.320;2022-08-07T14:20:23;8.25;;;3.42;;
73487;SDS011;61721;42.206;25.320;2022-08-07T14:22:59;7.32;;;3.20;;
73487;SDS011;61721;42.206;25.320;2022-08-07T14:25:32;6.07;;;3.55;;
73487;SDS011;61721;42.206;25.320;2022-08-07T14:28:04;6.10;;;3.28;;
73487;SDS011;61721;42.206;25.320;2022-08-07T14:30:35;6.05;;;3.05;;
73487;SDS011;61721;42.206;25.320;2022-08-07T14:33:03;5.18;;;2.90;;
73487;SDS011;61721;42.206;25.320;2022-08-07T14:35:32;6.13;;;2.63;;
73487;SDS011;61721;42.206;25.320;2022-08-07T14:38:01;5.30;;;2.95;;
73487;SDS011;61721;42.206;25.320;2022-08-07T14:40:29;5.95;;;3.17;;
73487;SDS011;61721;42.206;25.320;2022-08-07T14:43:00;5.40;;;2.97;;
73487;SDS011;61721;42.206;25.320;2022-08-07T14:45:33;5.20;;;3.03;;
73487;SDS011;61721;42.206;25.320;2022-08-07T14:48:07;4.82;;;2.83;;
73487;SDS011;61721;42.206;25.320;2022-08-07T14:50:35;5.63;;;3.03;;
73487;SDS011;61721;42.206;25.320;2022-08-07T14:53:08;5.60;;;3.33;;
73487;SDS011;61721;42.206;25.320;2022-08-07T14:55:36;6.40;;;3.47;;
73487;SDS011;61721;42.206;25.320;2022-08-07T14:58:08;6.40;;;3.10;;
73487;SDS011;61721;42.206;25.320;2022-08-07T15:00:41;7.97;;;3.30;;
73487;SDS011;61721;42.206;25.320;2022-08-07T15:03:13;6.70;;;3.35;;
73487;SDS011;61721;42.206;25.320;2022-08-07T15:05:41;5.68;;;2.97;;
73487;SDS011;61721;42.206;25.320;2022-08-07T15:08:09;8.27;;;3.42;;
73487;SDS011;61721;42.206;25.320;2022-08-07T15:10:39;6.40;;;3.45;;
73487;SDS011;61721;42.206;25.320;2022-08-07T15:13:14;6.88;;;3.10;;
73487;SDS011;61721;42.206;25.320;2022-08-07T15:15:45;8.60;;;3.42;;
73487;SDS011;61721;42.206;25.320;2022-08-07T15:18:17;6.82;;;3.33;;
73487;SDS011;61721;42.206;25.320;2022-08-07T15:20:47;5.35;;;3.42;;
73487;SDS011;61721;42.206;25.320;2022-08-07T15:23:18;5.95;;;3.38;;
73487;SDS011;61721;42.206;25.320;2022-08-07T15:25:52;7.00;;;3.10;;
73487;SDS011;61721;42.206;25.320;2022-08-07T15:28:22;6.03;;;3.20;;
73487;SDS011;61721;42.206;25.320;2022-08-07T15:30:55;5.32;;;3.25;;
73487;SDS011;61721;42.206;25.320;2022-08-07T15:33:27;6.28;;;3.35;;